Clinton, MS (39056)

11:54 PM CDT on July 28, 2015 (GMT -0500)
Countrywood | | Change Station
CLOSE
Current Station
Personal Weather Station
Location: Clinton, MS
Elevation: 338 ft
Nearby Weather Stations
Active Advisory: Heat Advisory

Elev 338 ft 32.32 °N, 90.34 °W | Updated 3 seconds ago

Clear
Clear
81.3 °F
Feels Like 88 °F
N
0.0
Wind Variable Wind from SW
Gusts 0.0 mph

Today
High -- | Low -- °F
--% Chance of Precip.
Yesterday
High -- | Low -- °F
Precip. -- in
6:13 AM 8:02 PM
Waxing Gibbous, 93% visible
Pressure 30.00 in
Visibility 6.0 miles
Clouds Clear
Heat Index 88 °F
Dew Point 76 °F
Humidity 83%
Rainfall 0.00 in
Snow Depth Not available.
UV 0.0 out of 12
Pollen 3.70 out of 12
Air Quality Not available.
Flu Activity Not available.
METAR KJVW 290435Z AUTO 00000KT 6SM HZ CLR 25/22 A3000 RMK AO2

More Conditions Fewer Conditions

Pressure 30.00 in
Visibility 6.0 miles
Clouds Clear
Heat Index 88 °F
Dew Point 76 °F
Humidity 83%
Rainfall 0.00 in
Snow Depth Not available.
UV 0.0 out of 12
Pollen 3.70 out of 12
Air Quality Not available.
Flu Activity Not available.
METAR KJVW 290435Z AUTO 00000KT 6SM HZ CLR 25/22 A3000 RMK AO2

More Conditions Fewer Conditions

10-Day Weather Forecast

×

Almanac

Astronomy

Jul. 28, 2015 Rise Set
Actual Time
Civil Twilight
Nautical Twilight
Astronomical Twilight
Moon
Length of Visible Light
Length of Day
Tomorrow will be .
, % of the Moon is Illuminated

Today's Extremes

State Highs State Lows

Community

WunderPhotos

Upload Photos

1,842,045 photos uploaded!

WunderBlogs® & News

Nearby

Air Quality

  Air Quality AQ Index Pollutant
Not available.

Snow Depth

Station Depth Elevation

Earthquake Activity

City Distance Mag. Time & Date
Minimum magnitude displayed is 2.5.

Coastal Water Temperatures

Place Temperature

Stations

Nearby Weather Stations

Station Location Temp. Windchill Dew Point Humidity Wind Precip. Elev Updated Type
                   
Heat Advisory
Statement as of 8:58 PM CDT on July 28, 2015

... Heat advisory remains in effect until 7 PM CDT Wednesday...

* temperatures... peaking from 96 to 100 degrees.

* Heat indices... peaking from 106 to 110 degrees.

* Impacts... increased risk of heat related illnesses including
heat exhaustion and heat stroke.

Precautionary/preparedness actions...

Take extra precautions... if you work or spend time outside. When
possible... reschedule strenuous activities to early morning or
evening. Know the signs and symptoms of heat exhaustion and heat
stroke. Wear light weight and loose fitting clothing when
possible and drink plenty of water. Heat stroke is an emergency...
call 9 1 1.

Young children and pets should never be left unattended in
vehicles under any circumstances. This is especially true during
warm or hot weather when car interiors can reach lethal
temperatures in a matter of minutes.



50